createdAt,value
2023-04-09T00:01:18.624Z,4.30
2023-04-09T00:03:47.013Z,4.30
2023-04-09T00:06:15.685Z,4.30
2023-04-09T00:08:43.839Z,4.40
2023-04-09T00:11:11.967Z,4.40
2023-04-09T00:13:41.738Z,4.50
2023-04-09T00:16:10.528Z,4.50
2023-04-09T00:18:38.682Z,4.60
2023-04-09T00:21:08.573Z,4.60
2023-04-09T00:23:37.128Z,4.50
2023-04-09T00:26:05.501Z,4.70
2023-04-09T00:28:33.829Z,4.70
2023-04-09T00:31:03.412Z,4.60
2023-04-09T00:33:33.718Z,4.70
2023-04-09T00:36:01.899Z,4.80
2023-04-09T00:38:30.485Z,4.70
2023-04-09T00:40:58.780Z,4.70
2023-04-09T00:43:27.029Z,4.60
2023-04-09T00:45:55.726Z,4.50
2023-04-09T00:48:25.997Z,4.40
2023-04-09T00:50:54.373Z,4.00
2023-04-09T00:53:26.416Z,4.10
2023-04-09T00:55:55.519Z,4.10
2023-04-09T00:58:23.976Z,4.20
2023-04-09T01:00:52.452Z,4.40
2023-04-09T01:03:20.952Z,4.10
2023-04-09T01:05:58.622Z,3.80
2023-04-09T01:08:39.269Z,3.90
2023-04-09T01:11:22.001Z,3.90
2023-04-09T01:14:00.263Z,3.90
2023-04-09T01:16:30.968Z,3.80
2023-04-09T01:19:03.964Z,3.80
2023-04-09T01:21:37.728Z,3.80
2023-04-09T01:24:22.155Z,3.80
2023-04-09T01:26:59.607Z,3.80
2023-04-09T01:29:33.408Z,4.00
2023-04-09T01:32:04.297Z,4.00
2023-04-09T01:34:33.511Z,4.20
2023-04-09T01:37:04.370Z,4.20
2023-04-09T01:39:33.559Z,4.30
2023-04-09T01:42:03.923Z,4.10
2023-04-09T01:44:34.439Z,4.00
2023-04-09T01:47:03.883Z,4.10
2023-04-09T01:49:33.127Z,4.00
2023-04-09T01:52:01.638Z,4.10
2023-04-09T01:54:29.939Z,4.10
2023-04-09T01:56:59.276Z,4.10
2023-04-09T01:59:27.984Z,4.20
2023-04-09T02:02:02.547Z,4.20
2023-04-09T02:04:36.636Z,4.30
2023-04-09T02:07:08.015Z,4.10
2023-04-09T02:09:41.103Z,4.20
2023-04-09T02:12:14.091Z,4.20
2023-04-09T02:14:44.153Z,4.30
2023-04-09T02:17:14.895Z,4.40
2023-04-09T02:19:44.666Z,4.50
2023-04-09T02:22:13.841Z,4.60
2023-04-09T02:24:42.286Z,4.60
2023-04-09T02:27:10.817Z,4.60
2023-04-09T02:29:41.179Z,4.80
2023-04-09T02:32:09.621Z,4.80
2023-04-09T02:34:39.208Z,4.80
2023-04-09T02:37:07.777Z,4.70
2023-04-09T02:39:36.055Z,4.60
2023-04-09T02:42:04.334Z,4.70
2023-04-09T02:44:33.063Z,4.80
2023-04-09T02:47:01.369Z,4.70
2023-04-09T02:49:29.964Z,4.70
2023-04-09T02:51:59.856Z,4.80
2023-04-09T02:54:28.203Z,4.80
2023-04-09T02:56:56.729Z,4.70
2023-04-09T02:59:25.051Z,4.70
2023-04-09T03:01:53.702Z,4.40
2023-04-09T03:04:22.432Z,4.40
2023-04-09T03:06:51.665Z,4.50
2023-04-09T03:09:21.413Z,4.80
2023-04-09T03:11:49.677Z,4.80
2023-04-09T03:14:17.887Z,4.90
2023-04-09T03:16:46.337Z,4.80
2023-04-09T03:19:14.498Z,4.80
2023-04-09T03:21:42.823Z,5.00
2023-04-09T03:24:11.087Z,4.90
2023-04-09T03:26:40.818Z,4.80
2023-04-09T03:29:09.189Z,4.40
2023-04-09T03:31:37.616Z,4.20
2023-04-09T03:34:06.209Z,4.10
2023-04-09T03:36:35.522Z,4.10
2023-04-09T03:39:03.804Z,4.10
2023-04-09T03:41:32.014Z,4.10
2023-04-09T03:44:01.813Z,4.20
2023-04-09T03:46:30.207Z,4.30
2023-04-09T03:48:58.509Z,4.50
2023-04-09T03:51:28.602Z,4.50
2023-04-09T03:53:57.868Z,4.60
2023-04-09T03:56:26.317Z,4.60
2023-04-09T03:58:54.813Z,4.50
2023-04-09T04:01:24.777Z,4.70
2023-04-09T04:03:53.175Z,4.70
2023-04-09T04:06:21.552Z,4.70
2023-04-09T04:11:18.384Z,4.80
2023-04-09T04:13:46.749Z,4.80
2023-04-09T04:16:15.117Z,4.50
2023-04-09T04:18:44.651Z,4.30
2023-04-09T04:21:15.170Z,4.30
2023-04-09T04:23:43.599Z,4.40
2023-04-09T04:26:12.791Z,4.30
2023-04-09T04:28:42.387Z,4.30
2023-04-09T04:31:11.451Z,4.20
2023-04-09T04:33:41.024Z,4.30
2023-04-09T04:36:12.593Z,4.30
2023-04-09T04:38:42.151Z,4.40
2023-04-09T04:41:12.163Z,4.50
2023-04-09T04:43:41.450Z,4.50
2023-04-09T04:46:09.967Z,4.60
2023-04-09T04:48:38.235Z,4.60
2023-04-09T04:51:06.710Z,4.80
2023-04-09T04:53:36.505Z,4.80
2023-04-09T04:56:05.348Z,4.80
2023-04-09T04:58:33.693Z,4.80
2023-04-09T05:01:02.170Z,4.80
2023-04-09T05:03:30.896Z,4.90
2023-04-09T05:05:59.237Z,4.90
2023-04-09T05:08:27.693Z,4.70
2023-04-09T05:10:57.562Z,4.90
2023-04-09T05:13:26.183Z,4.80
2023-04-09T05:15:54.768Z,4.80
2023-04-09T05:18:23.088Z,4.80
2023-04-09T05:20:51.552Z,5.00
2023-04-09T05:23:20.019Z,5.10
2023-04-09T05:25:50.788Z,5.00
2023-04-09T05:28:20.445Z,5.00
2023-04-09T05:30:48.996Z,5.20
2023-04-09T05:33:17.403Z,5.20
2023-04-09T05:35:46.003Z,5.30
2023-04-09T05:38:14.699Z,5.30
2023-04-09T05:40:45.069Z,5.50
2023-04-09T05:43:13.426Z,5.60
2023-04-09T05:45:43.392Z,5.60
2023-04-09T05:48:12.271Z,5.70
2023-04-09T05:50:53.506Z,5.70
2023-04-09T05:53:26.352Z,5.50
2023-04-09T05:55:54.738Z,5.60
2023-04-09T05:58:23.210Z,5.60
2023-04-09T06:00:53.722Z,5.70
2023-04-09T06:03:22.206Z,5.60
2023-04-09T06:05:50.548Z,5.70
2023-04-09T06:08:19.102Z,5.70
2023-04-09T06:10:47.355Z,6.00
2023-04-09T06:13:15.624Z,5.70
2023-04-09T06:15:44.388Z,5.60
2023-04-09T06:18:14.108Z,5.70
2023-04-09T06:20:43.603Z,5.90
2023-04-09T06:23:11.913Z,6.20
2023-04-09T06:25:40.142Z,6.40
2023-04-09T06:28:08.911Z,6.70
2023-04-09T06:30:38.003Z,6.90
2023-04-09T06:33:06.222Z,6.90
2023-04-09T06:35:35.819Z,6.90
2023-04-09T06:38:04.181Z,7.10
2023-04-09T06:40:32.339Z,7.20
2023-04-09T06:43:00.924Z,7.20
2023-04-09T06:45:29.536Z,6.90
2023-04-09T06:47:57.813Z,6.90
2023-04-09T06:50:26.097Z,7.00
2023-04-09T06:52:56.672Z,7.00
2023-04-09T06:55:26.832Z,7.10
2023-04-09T06:57:55.448Z,7.30
2023-04-09T07:00:24.055Z,7.50
2023-04-09T07:02:53.619Z,7.40
2023-04-09T07:05:22.892Z,6.90
2023-04-09T07:07:51.234Z,6.70
2023-04-09T07:10:21.199Z,6.60
2023-04-09T07:12:49.456Z,6.50
2023-04-09T07:15:21.379Z,6.60
2023-04-09T07:17:49.644Z,6.50
2023-04-09T07:20:18.095Z,6.70
2023-04-09T07:22:46.572Z,7.10
2023-04-09T07:25:15.880Z,6.90
2023-04-09T07:27:50.766Z,7.00
2023-04-09T07:30:19.006Z,7.20
2023-04-09T07:32:47.347Z,7.20
2023-04-09T07:35:15.874Z,7.20
2023-04-09T07:37:44.078Z,6.80
2023-04-09T07:40:13.218Z,7.10
2023-04-09T07:42:42.803Z,7.50
2023-04-09T07:45:12.964Z,7.10
2023-04-09T07:47:42.118Z,7.20
2023-04-09T07:50:11.410Z,7.40
2023-04-09T07:52:39.761Z,7.50
2023-04-09T07:55:08.648Z,7.80
2023-04-09T07:57:37.929Z,7.60
2023-04-09T08:00:07.546Z,7.50
2023-04-09T08:02:38.110Z,8.00
2023-04-09T08:05:07.916Z,8.40
2023-04-09T08:07:36.864Z,8.80
2023-04-09T08:10:05.908Z,8.40
2023-04-09T08:12:34.512Z,7.80
2023-04-09T08:15:04.097Z,7.80
2023-04-09T08:17:32.365Z,7.80
2023-04-09T08:20:02.189Z,7.90
2023-04-09T08:22:30.465Z,8.20
2023-04-09T08:25:00.250Z,8.10
2023-04-09T08:27:30.529Z,8.20
2023-04-09T08:29:58.893Z,8.20
2023-04-09T08:32:27.465Z,8.10
2023-04-09T08:34:56.272Z,8.30
2023-04-09T08:37:26.833Z,8.10
2023-04-09T08:39:55.331Z,8.40
2023-04-09T08:42:24.282Z,8.60
2023-04-09T08:44:53.118Z,8.40
2023-04-09T08:47:22.275Z,8.50
2023-04-09T08:49:50.609Z,8.60
2023-04-09T08:52:22.125Z,8.30
2023-04-09T08:54:53.014Z,8.20
2023-04-09T08:57:21.958Z,8.80
2023-04-09T08:59:53.515Z,8.50
2023-04-09T09:02:21.804Z,8.50
2023-04-09T09:04:53.536Z,8.70
2023-04-09T09:07:22.003Z,8.40
2023-04-09T09:09:56.287Z,8.80
2023-04-09T09:12:39.331Z,9.30
2023-04-09T09:15:26.292Z,9.70
2023-04-09T09:17:58.135Z,10.20
2023-04-09T09:20:27.851Z,10.80
2023-04-09T09:22:57.674Z,10.80
2023-04-09T09:25:27.595Z,11.30
2023-04-09T09:27:56.218Z,12.00
2023-04-09T09:30:25.874Z,12.60
2023-04-09T09:32:55.074Z,12.00
2023-04-09T09:35:23.974Z,11.90
2023-04-09T09:38:04.283Z,11.10
2023-04-09T09:40:34.178Z,11.30
2023-04-09T09:43:02.390Z,11.50
2023-04-09T09:45:31.448Z,11.40
2023-04-09T09:48:00.130Z,11.30
2023-04-09T09:50:32.560Z,10.70
2023-04-09T09:53:04.889Z,10.50
2023-04-09T09:55:39.418Z,9.60
2023-04-09T09:58:17.913Z,9.40
2023-04-09T10:00:48.444Z,9.20
2023-04-09T10:03:23.341Z,9.20
2023-04-09T10:05:53.520Z,9.60
2023-04-09T10:08:25.419Z,9.50
2023-04-09T10:10:55.411Z,9.40
2023-04-09T10:13:34.490Z,9.60
2023-04-09T10:16:03.296Z,9.40
2023-04-09T10:18:33.565Z,9.50
2023-04-09T10:21:10.327Z,10.20
2023-04-09T10:23:49.459Z,10.10
2023-04-09T10:26:20.258Z,10.00
2023-04-09T10:28:48.737Z,9.90
2023-04-09T10:31:17.166Z,10.00
2023-04-09T10:33:46.024Z,10.30
2023-04-09T10:36:15.492Z,10.60
2023-04-09T10:38:48.257Z,11.00
2023-04-09T10:41:24.356Z,11.20
2023-04-09T10:43:52.679Z,10.70
2023-04-09T10:46:28.746Z,10.40
2023-04-09T10:49:14.607Z,10.40
2023-04-09T10:51:46.870Z,10.20
2023-04-09T10:54:43.760Z,9.90
2023-04-09T10:57:15.091Z,9.70
2023-04-09T10:59:45.973Z,9.70
2023-04-09T11:03:14.788Z,9.50
2023-04-09T11:05:45.464Z,9.80
2023-04-09T11:08:15.520Z,10.10
2023-04-09T11:10:45.130Z,9.80
2023-04-09T11:13:16.126Z,9.50
2023-04-09T11:15:45.975Z,9.70
2023-04-09T11:18:21.815Z,9.80
2023-04-09T11:20:50.347Z,9.80
2023-04-09T11:23:19.831Z,10.10
2023-04-09T11:25:51.630Z,10.20
2023-04-09T11:28:22.172Z,10.20
2023-04-09T11:30:52.800Z,10.40
2023-04-09T11:33:21.453Z,10.40
2023-04-09T11:35:50.003Z,10.50
2023-04-09T11:38:18.843Z,10.00
2023-04-09T11:40:49.274Z,10.30
2023-04-09T11:43:21.147Z,10.60
2023-04-09T11:45:50.314Z,10.50
2023-04-09T11:48:19.309Z,11.10
2023-04-09T11:50:48.499Z,11.00
2023-04-09T11:53:20.723Z,11.00
2023-04-09T11:55:51.459Z,10.50
2023-04-09T11:58:24.453Z,10.40
2023-04-09T12:00:55.375Z,10.10
2023-04-09T12:03:33.647Z,10.60
2023-04-09T12:06:03.799Z,10.70
2023-04-09T12:08:34.622Z,10.40
2023-04-09T12:11:10.485Z,11.10
2023-04-09T12:13:43.213Z,11.20
2023-04-09T12:16:12.137Z,10.90
2023-04-09T12:18:41.184Z,10.80
2023-04-09T12:21:09.435Z,11.10
2023-04-09T12:23:38.809Z,11.60
2023-04-09T12:26:07.129Z,11.20
2023-04-09T12:28:35.492Z,11.40
2023-04-09T12:31:05.011Z,11.70
2023-04-09T12:33:34.045Z,11.50
2023-04-09T12:36:02.558Z,11.20
2023-04-09T12:38:30.765Z,11.00
2023-04-09T12:40:58.971Z,11.30
2023-04-09T12:43:27.695Z,11.20
2023-04-09T12:45:56.082Z,10.90
2023-04-09T12:48:27.004Z,10.90
2023-04-09T12:50:55.805Z,11.30
2023-04-09T12:53:24.368Z,11.70
2023-04-09T12:55:52.799Z,12.00
2023-04-09T12:58:21.136Z,12.20
2023-04-09T13:00:53.689Z,12.30
2023-04-09T13:03:22.119Z,12.60
2023-04-09T13:05:52.078Z,12.80
2023-04-09T13:08:20.341Z,13.10
2023-04-09T13:10:48.812Z,13.30
2023-04-09T13:13:19.647Z,13.40
2023-04-09T13:15:48.013Z,13.40
2023-04-09T13:18:16.418Z,13.30
2023-04-09T13:20:44.588Z,13.20
2023-04-09T13:23:14.343Z,13.50
2023-04-09T13:25:42.494Z,13.60
2023-04-09T13:28:13.491Z,13.10
2023-04-09T13:30:41.876Z,13.30
2023-04-09T13:33:10.172Z,13.60
2023-04-09T13:35:38.981Z,13.80
2023-04-09T13:38:07.286Z,13.90
2023-04-09T13:40:37.082Z,14.20
2023-04-09T13:43:05.785Z,14.40
2023-04-09T13:45:39.396Z,14.30
2023-04-09T13:48:08.255Z,14.30
2023-04-09T13:50:37.041Z,14.30
2023-04-09T13:53:05.781Z,14.50
2023-04-09T13:55:34.124Z,14.80
2023-04-09T13:58:06.655Z,14.90
2023-04-09T14:00:35.001Z,15.00
2023-04-09T14:03:03.631Z,15.20
2023-04-09T14:05:32.804Z,15.00
2023-04-09T14:08:01.406Z,15.10
2023-04-09T14:10:30.701Z,14.70
2023-04-09T14:12:58.979Z,15.00
2023-04-09T14:15:28.692Z,15.20
2023-04-09T14:17:57.433Z,15.20
2023-04-09T14:20:25.701Z,15.20
2023-04-09T14:22:53.934Z,15.00
2023-04-09T14:25:22.285Z,15.00
2023-04-09T14:27:50.981Z,14.90
2023-04-09T14:30:19.865Z,14.90
2023-04-09T14:32:49.740Z,14.90
2023-04-09T14:35:18.040Z,14.30
2023-04-09T14:37:47.334Z,14.20
2023-04-09T14:40:16.124Z,14.50
2023-04-09T14:42:44.265Z,14.80
2023-04-09T14:45:13.255Z,15.10
2023-04-09T14:47:44.630Z,15.20
2023-04-09T14:50:14.703Z,15.00
2023-04-09T14:52:43.025Z,14.80
2023-04-09T14:55:12.541Z,14.90
2023-04-09T14:57:42.105Z,14.90
2023-04-09T15:00:12.171Z,15.00
2023-04-09T15:02:41.554Z,14.60
2023-04-09T15:05:11.609Z,14.40
2023-04-09T15:07:41.684Z,14.60
2023-04-09T15:10:11.634Z,14.70
2023-04-09T15:12:39.884Z,14.80
2023-04-09T15:15:09.458Z,14.60
2023-04-09T15:17:37.989Z,14.70
2023-04-09T15:20:07.296Z,14.70
2023-04-09T15:22:35.995Z,14.80
2023-04-09T15:25:06.476Z,14.20
2023-04-09T15:27:34.764Z,14.10
2023-04-09T15:30:03.065Z,14.20
2023-04-09T15:32:32.472Z,14.00
2023-04-09T15:35:01.847Z,13.90
2023-04-09T15:37:30.034Z,13.80
2023-04-09T15:39:58.677Z,13.90
2023-04-09T15:42:28.886Z,14.00
2023-04-09T15:44:57.081Z,14.00
2023-04-09T15:47:25.445Z,13.90
2023-04-09T15:49:55.181Z,13.60
2023-04-09T15:52:23.711Z,13.40
2023-04-09T15:54:52.240Z,13.50
2023-04-09T15:57:21.093Z,13.40
2023-04-09T15:59:50.773Z,13.50
2023-04-09T16:02:24.110Z,13.40
2023-04-09T16:04:54.725Z,13.70
2023-04-09T16:07:23.137Z,13.70
2023-04-09T16:09:51.242Z,13.70
2023-04-09T16:12:20.011Z,13.50
2023-04-09T16:14:48.276Z,13.50
2023-04-09T16:17:18.108Z,13.50
2023-04-09T16:19:46.696Z,13.50
2023-04-09T16:22:15.054Z,13.60
2023-04-09T16:24:43.831Z,13.80
2023-04-09T16:27:13.665Z,13.80
2023-04-09T16:29:42.387Z,13.80
2023-04-09T16:32:10.808Z,13.70
2023-04-09T16:34:40.871Z,13.60
2023-04-09T16:37:09.044Z,13.50
2023-04-09T16:39:37.856Z,13.30
2023-04-09T16:42:07.101Z,13.30
2023-04-09T16:45:25.162Z,13.10
2023-04-09T16:47:56.203Z,12.50
2023-04-09T16:50:26.246Z,12.60
2023-04-09T16:52:54.709Z,12.60
2023-04-09T16:55:26.325Z,12.70
2023-04-09T16:57:56.033Z,12.70
2023-04-09T17:00:24.714Z,12.60
2023-04-09T17:02:53.027Z,12.40
2023-04-09T17:05:22.536Z,12.50
2023-04-09T17:07:53.638Z,12.30
2023-04-09T17:10:23.321Z,12.20
2023-04-09T17:12:51.599Z,12.10
2023-04-09T17:15:20.659Z,12.10
2023-04-09T17:17:51.282Z,12.00
2023-04-09T17:20:24.274Z,11.90
2023-04-09T17:22:54.160Z,11.80
2023-04-09T17:25:22.454Z,11.80
2023-04-09T17:27:54.585Z,11.70
2023-04-09T17:30:22.989Z,11.60
2023-04-09T17:32:51.506Z,11.50
2023-04-09T17:35:20.254Z,11.50
2023-04-09T17:37:48.518Z,11.60
2023-04-09T17:40:20.106Z,11.50
2023-04-09T17:42:49.155Z,11.40
2023-04-09T17:45:17.728Z,11.50
2023-04-09T17:47:46.079Z,11.40
2023-04-09T17:50:14.800Z,11.30
2023-04-09T17:52:43.034Z,11.20
2023-04-09T17:55:13.171Z,11.20
2023-04-09T17:57:42.985Z,10.90
2023-04-09T18:00:12.409Z,10.90
2023-04-09T18:02:40.969Z,10.60
2023-04-09T18:05:10.864Z,10.50
2023-04-09T18:07:39.428Z,10.50
2023-04-09T18:10:08.488Z,10.50
2023-04-09T18:12:36.689Z,10.50
2023-04-09T18:15:08.011Z,9.90
2023-04-09T18:17:36.338Z,9.90
2023-04-09T18:20:06.451Z,9.90
2023-04-09T18:22:35.183Z,9.60
2023-04-09T18:25:04.201Z,9.50
2023-04-09T18:27:32.451Z,9.20
2023-04-09T18:30:00.839Z,9.30
2023-04-09T18:32:31.134Z,9.30
2023-04-09T18:35:01.023Z,9.30
2023-04-09T18:37:29.525Z,9.30
2023-04-09T18:39:59.593Z,9.20
2023-04-09T18:42:29.086Z,8.70
2023-04-09T18:44:58.001Z,8.40
2023-04-09T18:47:30.679Z,8.40
2023-04-09T18:49:59.075Z,8.30
2023-04-09T18:52:27.637Z,8.30
2023-04-09T18:54:55.915Z,8.30
2023-04-09T18:57:24.273Z,8.30
2023-04-09T18:59:52.989Z,8.50
2023-04-09T19:02:21.601Z,8.50
2023-04-09T19:04:51.371Z,8.50
2023-04-09T19:07:20.871Z,8.20
2023-04-09T19:09:49.186Z,8.30
2023-04-09T19:12:17.483Z,7.90
2023-04-09T19:14:45.698Z,7.60
2023-04-09T19:17:14.075Z,7.50
2023-04-09T19:19:42.913Z,7.50
2023-04-09T19:22:12.786Z,7.50
2023-04-09T19:24:44.134Z,7.40
2023-04-09T19:27:13.274Z,7.40
2023-04-09T19:29:41.547Z,7.40
2023-04-09T19:32:12.986Z,7.60
2023-04-09T19:34:41.324Z,7.60
2023-04-09T19:37:10.589Z,7.80
2023-04-09T19:39:41.681Z,7.90
2023-04-09T19:42:10.070Z,7.90
2023-04-09T19:44:38.913Z,7.70
2023-04-09T19:47:07.642Z,7.50
2023-04-09T19:49:35.874Z,7.50
2023-04-09T19:52:06.228Z,7.50
2023-04-09T19:54:34.999Z,7.50
2023-04-09T19:57:05.091Z,7.40
2023-04-09T19:59:36.395Z,7.40
2023-04-09T20:02:04.733Z,7.40
2023-04-09T20:04:32.976Z,7.40
2023-04-09T20:07:01.394Z,7.30
2023-04-09T20:09:29.789Z,7.30
2023-04-09T20:11:58.427Z,7.40
2023-04-09T20:14:27.975Z,7.40
2023-04-09T20:16:56.810Z,7.40
2023-04-09T20:19:24.960Z,7.40
2023-04-09T20:21:54.902Z,7.30
2023-04-09T20:24:26.222Z,7.30
2023-04-09T20:26:54.691Z,7.30
2023-04-09T20:29:22.982Z,7.30
2023-04-09T20:31:52.873Z,7.20
2023-04-09T20:34:26.368Z,7.10
2023-04-09T20:36:54.808Z,7.10
2023-04-09T20:39:24.974Z,7.00
2023-04-09T20:41:53.381Z,7.00
2023-04-09T20:44:21.582Z,7.10
2023-04-09T20:46:54.039Z,7.20
2023-04-09T20:49:22.636Z,7.40
2023-04-09T20:51:51.900Z,7.50
2023-04-09T20:54:22.447Z,7.60
2023-04-09T20:56:51.283Z,7.80
2023-04-09T20:59:20.290Z,7.90
2023-04-09T21:01:48.897Z,7.90
2023-04-09T21:04:19.405Z,7.90
2023-04-09T21:06:47.779Z,7.80
2023-04-09T21:09:15.928Z,7.80
2023-04-09T21:11:44.414Z,7.80
2023-04-09T21:14:14.651Z,7.80
2023-04-09T21:16:42.916Z,7.80
2023-04-09T21:19:11.141Z,7.90
2023-04-09T21:21:40.957Z,7.90
2023-04-09T21:24:09.584Z,7.90
2023-04-09T21:26:49.873Z,7.90
2023-04-09T21:29:20.333Z,7.90
2023-04-09T21:31:49.198Z,8.10
2023-04-09T21:34:17.743Z,8.00
2023-04-09T21:36:47.585Z,8.00
2023-04-09T21:39:15.993Z,8.00
2023-04-09T21:41:44.213Z,8.10
2023-04-09T21:44:13.442Z,8.20
2023-04-09T21:46:43.440Z,8.20
2023-04-09T21:49:11.831Z,8.20
2023-04-09T21:51:40.216Z,8.20
2023-04-09T21:54:10.987Z,8.20
2023-04-09T21:56:39.862Z,8.10
2023-04-09T21:59:08.171Z,8.10
2023-04-09T22:01:36.547Z,8.20
2023-04-09T22:04:05.099Z,8.20
2023-04-09T22:06:33.633Z,8.30
2023-04-09T22:09:02.423Z,8.20
2023-04-09T22:11:34.162Z,8.10
2023-04-09T22:14:02.340Z,8.10
2023-04-09T22:16:31.011Z,8.10
2023-04-09T22:18:59.382Z,8.20
2023-04-09T22:21:27.751Z,8.20
2023-04-09T22:23:56.101Z,8.10
2023-04-09T22:26:24.439Z,8.10
2023-04-09T22:28:54.258Z,8.10
2023-04-09T22:31:22.915Z,8.10
2023-04-09T22:33:51.276Z,8.10
2023-04-09T22:36:19.852Z,8.00
2023-04-09T22:38:48.785Z,8.10
2023-04-09T22:41:17.708Z,8.10
2023-04-09T22:43:46.280Z,8.00
2023-04-09T22:46:16.438Z,8.00
2023-04-09T22:48:46.524Z,8.00
2023-04-09T22:51:18.379Z,7.90
2023-04-09T22:53:48.028Z,7.90
2023-04-09T22:56:16.451Z,7.80
2023-04-09T22:58:44.784Z,7.80
2023-04-09T23:01:13.328Z,7.80
2023-04-09T23:03:42.988Z,7.90
2023-04-09T23:06:11.466Z,7.80
2023-04-09T23:08:40.860Z,7.80
2023-04-09T23:11:10.375Z,7.70
2023-04-09T23:13:39.585Z,7.70
2023-04-09T23:16:09.106Z,7.70
2023-04-09T23:18:38.000Z,7.70
2023-04-09T23:21:11.651Z,7.70
2023-04-09T23:23:42.918Z,7.50
2023-04-09T23:26:11.818Z,7.50
2023-04-09T23:28:40.122Z,7.40
2023-04-09T23:31:08.496Z,7.50
2023-04-09T23:33:36.951Z,7.50
2023-04-09T23:36:05.988Z,7.60
2023-04-09T23:38:35.608Z,7.50
2023-04-09T23:41:04.127Z,7.40
2023-04-09T23:43:32.526Z,7.50
2023-04-09T23:46:00.803Z,7.40
2023-04-09T23:48:28.984Z,7.30
2023-04-09T23:50:57.916Z,7.30
2023-04-09T23:53:27.096Z,7.30
2023-04-09T23:55:56.989Z,7.30
2023-04-09T23:58:25.680Z,7.20
